sensor_id;sensor_type;location;lat;lon;timestamp;temperature;humidity
12015;DHT22;6066;48.138;16.402;2024-01-15T00:01:12;-3.20;99.90
12015;DHT22;6066;48.138;16.402;2024-01-15T00:03:38;-3.20;99.90
12015;DHT22;6066;48.138;16.402;2024-01-15T00:06:07;-3.20;99.90
12015;DHT22;6066;48.138;16.402;2024-01-15T00:08:34;-3.10;99.90
12015;DHT22;6066;48.138;16.402;2024-01-15T00:11:00;-3.10;99.90
12015;DHT22;6066;48.138;16.402;2024-01-15T00:13:27;-3.20;99.90
12015;DHT22;6066;48.138;16.402;2024-01-15T00:15:54;-3.20;99.90
12015;DHT22;6066;48.138;16.402;2024-01-15T00:18:21;-3.20;99.90
12015;DHT22;6066;48.138;16.402;2024-01-15T00:20:48;-3.20;99.90
12015;DHT22;6066;48.138;16.402;2024-01-15T00:23:16;-3.20;99.90
12015;DHT22;6066;48.138;16.402;2024-01-15T00:25:43;-3.20;99.90
12015;DHT22;6066;48.138;16.402;2024-01-15T00:28:10;-3.20;99.90
12015;DHT22;6066;48.138;16.402;2024-01-15T00:30:36;-3.20;99.90
12015;DHT22;6066;48.138;16.402;2024-01-15T00:33:03;-3.20;99.90
12015;DHT22;6066;48.138;16.402;2024-01-15T00:35:30;-3.20;99.90
12015;DHT22;6066;48.138;16.402;2024-01-15T00:37:57;-3.20;99.90
12015;DHT22;6066;48.138;16.402;2024-01-15T00:40:25;-3.20;99.90
12015;DHT22;6066;48.138;16.402;2024-01-15T00:42:52;-3.20;99.90
12015;DHT22;6066;48.138;16.402;2024-01-15T00:45:19;-3.20;99.90
12015;DHT22;6066;48.138;16.402;2024-01-15T00:47:46;-3.20;99.90
12015;DHT22;6066;48.138;16.402;2024-01-15T00:50:13;-3.20;99.90
12015;DHT22;6066;48.138;16.402;2024-01-15T00:52:39;-3.10;99.90
12015;DHT22;6066;48.138;16.402;2024-01-15T00:55:07;-3.10;99.90
12015;DHT22;6066;48.138;16.402;2024-01-15T00:57:35;-3.00;99.90
12015;DHT22;6066;48.138;16.402;2024-01-15T01:00:02;-3.00;99.90
12015;DHT22;6066;48.138;16.402;2024-01-15T01:02:28;-2.90;99.90
12015;DHT22;6066;48.138;16.402;2024-01-15T01:04:55;-2.90;99.90
12015;DHT22;6066;48.138;16.402;2024-01-15T01:07:22;-2.90;99.90
12015;DHT22;6066;48.138;16.402;2024-01-15T01:09:49;-2.90;99.90
12015;DHT22;6066;48.138;16.402;2024-01-15T01:12:16;-2.90;99.90
12015;DHT22;6066;48.138;16.402;2024-01-15T01:14:45;-2.90;99.90
12015;DHT22;6066;48.138;16.402;2024-01-15T01:17:11;-2.90;99.90
12015;DHT22;6066;48.138;16.402;2024-01-15T01:19:38;-2.90;99.90
12015;DHT22;6066;48.138;16.402;2024-01-15T01:22:05;-2.90;99.90
12015;DHT22;6066;48.138;16.402;2024-01-15T01:24:32;-2.90;99.90
12015;DHT22;6066;48.138;16.402;2024-01-15T01:26:58;-2.90;99.90
12015;DHT22;6066;48.138;16.402;2024-01-15T01:29:25;-2.90;99.90
12015;DHT22;6066;48.138;16.402;2024-01-15T01:31:54;-2.90;99.90
12015;DHT22;6066;48.138;16.402;2024-01-15T01:34:21;-2.90;99.90
12015;DHT22;6066;48.138;16.402;2024-01-15T01:36:48;-2.80;99.90
12015;DHT22;6066;48.138;16.402;2024-01-15T01:39:15;-2.80;99.90
12015;DHT22;6066;48.138;16.402;2024-01-15T01:41:42;-2.80;99.90
12015;DHT22;6066;48.138;16.402;2024-01-15T01:44:09;-2.80;99.90
12015;DHT22;6066;48.138;16.402;2024-01-15T01:46:36;-2.70;99.90
12015;DHT22;6066;48.138;16.402;2024-01-15T01:49:06;-2.70;99.90
12015;DHT22;6066;48.138;16.402;2024-01-15T01:51:34;-2.70;99.90
12015;DHT22;6066;48.138;16.402;2024-01-15T01:54:01;-2.60;99.90
12015;DHT22;6066;48.138;16.402;2024-01-15T01:56:28;-2.70;99.90
12015;DHT22;6066;48.138;16.402;2024-01-15T01:58:55;-2.60;99.90
12015;DHT22;6066;48.138;16.402;2024-01-15T02:01:21;-2.60;99.90
12015;DHT22;6066;48.138;16.402;2024-01-15T02:03:48;-2.60;99.90
12015;DHT22;6066;48.138;16.402;2024-01-15T02:06:17;-2.60;99.90
12015;DHT22;6066;48.138;16.402;2024-01-15T02:08:44;-2.70;99.90
12015;DHT22;6066;48.138;16.402;2024-01-15T02:11:11;-2.60;99.90
12015;DHT22;6066;48.138;16.402;2024-01-15T02:13:38;-2.60;99.90
12015;DHT22;6066;48.138;16.402;2024-01-15T02:16:05;-2.60;99.90
12015;DHT22;6066;48.138;16.402;2024-01-15T02:18:39;-2.60;99.90
12015;DHT22;6066;48.138;16.402;2024-01-15T02:21:06;-2.60;99.90
12015;DHT22;6066;48.138;16.402;2024-01-15T02:23:34;-2.60;99.90
12015;DHT22;6066;48.138;16.402;2024-01-15T02:26:01;-2.60;99.90
12015;DHT22;6066;48.138;16.402;2024-01-15T02:28:27;-2.60;99.90
12015;DHT22;6066;48.138;16.402;2024-01-15T02:30:54;-2.70;99.90
12015;DHT22;6066;48.138;16.402;2024-01-15T02:33:21;-2.70;99.90
12015;DHT22;6066;48.138;16.402;2024-01-15T02:35:48;-2.80;99.90
12015;DHT22;6066;48.138;16.402;2024-01-15T02:38:15;-2.80;99.90
12015;DHT22;6066;48.138;16.402;2024-01-15T02:40:44;-2.70;99.90
12015;DHT22;6066;48.138;16.402;2024-01-15T02:43:11;-2.70;99.90
12015;DHT22;6066;48.138;16.402;2024-01-15T02:45:39;-2.60;99.90
12015;DHT22;6066;48.138;16.402;2024-01-15T02:48:06;-2.60;99.90
12015;DHT22;6066;48.138;16.402;2024-01-15T02:50:32;-2.60;99.90
12015;DHT22;6066;48.138;16.402;2024-01-15T02:52:59;-2.60;99.90
12015;DHT22;6066;48.138;16.402;2024-01-15T02:55:26;-2.60;99.90
12015;DHT22;6066;48.138;16.402;2024-01-15T02:57:56;-2.60;99.90
12015;DHT22;6066;48.138;16.402;2024-01-15T03:00:23;-2.60;99.90
12015;DHT22;6066;48.138;16.402;2024-01-15T03:02:50;-2.60;99.90
12015;DHT22;6066;48.138;16.402;2024-01-15T03:05:17;-2.70;99.90
12015;DHT22;6066;48.138;16.402;2024-01-15T03:07:43;-2.80;99.90
12015;DHT22;6066;48.138;16.402;2024-01-15T03:10:10;-2.80;99.90
12015;DHT22;6066;48.138;16.402;2024-01-15T03:12:39;-2.90;99.90
12015;DHT22;6066;48.138;16.402;2024-01-15T03:15:07;-2.90;99.90
12015;DHT22;6066;48.138;16.402;2024-01-15T03:17:34;-2.90;99.90
12015;DHT22;6066;48.138;16.402;2024-01-15T03:20:01;-2.90;99.90
12015;DHT22;6066;48.138;16.402;2024-01-15T03:22:28;-2.90;99.90
12015;DHT22;6066;48.138;16.402;2024-01-15T03:24:55;-2.90;99.90
12015;DHT22;6066;48.138;16.402;2024-01-15T03:27:22;-2.80;99.90
12015;DHT22;6066;48.138;16.402;2024-01-15T03:29:48;-2.70;99.90
12015;DHT22;6066;48.138;16.402;2024-01-15T03:32:17;-2.60;99.90
12015;DHT22;6066;48.138;16.402;2024-01-15T03:34:45;-2.40;99.90
12015;DHT22;6066;48.138;16.402;2024-01-15T03:37:12;-2.30;99.90
12015;DHT22;6066;48.138;16.402;2024-01-15T03:39:39;-1.90;99.90
12015;DHT22;6066;48.138;16.402;2024-01-15T03:42:06;-1.80;99.90
12015;DHT22;6066;48.138;16.402;2024-01-15T03:44:33;-1.60;99.90
12015;DHT22;6066;48.138;16.402;2024-01-15T03:46:59;-1.40;99.90
12015;DHT22;6066;48.138;16.402;2024-01-15T03:49:28;-1.30;99.90
12015;DHT22;6066;48.138;16.402;2024-01-15T03:51:55;-1.10;99.90
12015;DHT22;6066;48.138;16.402;2024-01-15T03:54:21;-0.90;99.90
12015;DHT22;6066;48.138;16.402;2024-01-15T03:56:48;-0.80;99.90
12015;DHT22;6066;48.138;16.402;2024-01-15T03:59:15;-0.70;99.90
12015;DHT22;6066;48.138;16.402;2024-01-15T04:01:47;-0.70;99.90
12015;DHT22;6066;48.138;16.402;2024-01-15T04:04:14;-0.60;99.90
12015;DHT22;6066;48.138;16.402;2024-01-15T04:06:42;-0.50;99.90
12015;DHT22;6066;48.138;16.402;2024-01-15T04:09:09;-0.50;99.90
12015;DHT22;6066;48.138;16.402;2024-01-15T04:11:36;-0.30;99.90
12015;DHT22;6066;48.138;16.402;2024-01-15T04:14:02;-0.30;99.90
12015;DHT22;6066;48.138;16.402;2024-01-15T04:16:29;-0.30;99.90
12015;DHT22;6066;48.138;16.402;2024-01-15T04:18:56;-0.30;99.90
12015;DHT22;6066;48.138;16.402;2024-01-15T04:21:23;-0.30;99.90
12015;DHT22;6066;48.138;16.402;2024-01-15T04:23:51;-0.30;99.90
12015;DHT22;6066;48.138;16.402;2024-01-15T04:26:18;-0.30;99.90
12015;DHT22;6066;48.138;16.402;2024-01-15T04:28:45;-0.30;99.90
12015;DHT22;6066;48.138;16.402;2024-01-15T04:31:20;-0.20;99.90
12015;DHT22;6066;48.138;16.402;2024-01-15T04:33:46;-0.30;99.90
12015;DHT22;6066;48.138;16.402;2024-01-15T04:36:13;-0.30;99.90
12015;DHT22;6066;48.138;16.402;2024-01-15T04:38:40;-0.30;99.90
12015;DHT22;6066;48.138;16.402;2024-01-15T04:41:10;-0.20;99.90
12015;DHT22;6066;48.138;16.402;2024-01-15T04:43:37;-0.10;99.90
12015;DHT22;6066;48.138;16.402;2024-01-15T04:46:05;0.10;99.90
12015;DHT22;6066;48.138;16.402;2024-01-15T04:48:32;0.40;99.90
12015;DHT22;6066;48.138;16.402;2024-01-15T04:50:58;0.50;99.90
12015;DHT22;6066;48.138;16.402;2024-01-15T04:53:25;0.60;99.90
12015;DHT22;6066;48.138;16.402;2024-01-15T04:55:52;0.90;99.90
12015;DHT22;6066;48.138;16.402;2024-01-15T04:58:20;1.00;99.90
12015;DHT22;6066;48.138;16.402;2024-01-15T05:00:50;1.10;99.90
12015;DHT22;6066;48.138;16.402;2024-01-15T05:03:17;1.00;99.90
12015;DHT22;6066;48.138;16.402;2024-01-15T05:05:43;1.00;99.90
12015;DHT22;6066;48.138;16.402;2024-01-15T05:08:10;1.10;99.90
12015;DHT22;6066;48.138;16.402;2024-01-15T05:10:37;1.10;99.90
12015;DHT22;6066;48.138;16.402;2024-01-15T05:13:04;1.10;99.90
12015;DHT22;6066;48.138;16.402;2024-01-15T05:15:32;1.10;99.90
12015;DHT22;6066;48.138;16.402;2024-01-15T05:17:59;1.00;99.90
12015;DHT22;6066;48.138;16.402;2024-01-15T05:20:26;0.90;99.90
12015;DHT22;6066;48.138;16.402;2024-01-15T05:22:52;0.90;99.90
12015;DHT22;6066;48.138;16.402;2024-01-15T05:25:19;1.00;99.90
12015;DHT22;6066;48.138;16.402;2024-01-15T05:27:46;1.00;99.90
12015;DHT22;6066;48.138;16.402;2024-01-15T05:30:13;0.90;99.90
12015;DHT22;6066;48.138;16.402;2024-01-15T05:32:41;0.90;99.90
12015;DHT22;6066;48.138;16.402;2024-01-15T05:35:08;0.70;99.90
12015;DHT22;6066;48.138;16.402;2024-01-15T05:37:35;0.70;99.90
12015;DHT22;6066;48.138;16.402;2024-01-15T05:40:01;0.70;99.90
12015;DHT22;6066;48.138;16.402;2024-01-15T05:42:30;0.60;99.90
12015;DHT22;6066;48.138;16.402;2024-01-15T05:44:57;0.50;99.90
12015;DHT22;6066;48.138;16.402;2024-01-15T05:47:27;0.50;99.90
12015;DHT22;6066;48.138;16.402;2024-01-15T05:49:56;0.60;99.90
12015;DHT22;6066;48.138;16.402;2024-01-15T05:52:22;0.70;99.90
12015;DHT22;6066;48.138;16.402;2024-01-15T05:54:49;0.70;99.90
12015;DHT22;6066;48.138;16.402;2024-01-15T05:57:16;0.70;99.90
12015;DHT22;6066;48.138;16.402;2024-01-15T05:59:44;0.70;99.90
12015;DHT22;6066;48.138;16.402;2024-01-15T06:02:10;0.70;99.90
12015;DHT22;6066;48.138;16.402;2024-01-15T06:04:37;0.80;99.90
12015;DHT22;6066;48.138;16.402;2024-01-15T06:07:05;0.70;99.90
12015;DHT22;6066;48.138;16.402;2024-01-15T06:09:32;0.80;99.90
12015;DHT22;6066;48.138;16.402;2024-01-15T06:11:59;0.90;99.90
12015;DHT22;6066;48.138;16.402;2024-01-15T06:14:26;0.90;99.90
12015;DHT22;6066;48.138;16.402;2024-01-15T06:16:53;0.80;99.90
12015;DHT22;6066;48.138;16.402;2024-01-15T06:19:19;0.80;99.90
12015;DHT22;6066;48.138;16.402;2024-01-15T06:21:46;0.80;99.90
12015;DHT22;6066;48.138;16.402;2024-01-15T06:24:14;0.70;99.90
12015;DHT22;6066;48.138;16.402;2024-01-15T06:26:43;0.80;99.90
12015;DHT22;6066;48.138;16.402;2024-01-15T06:29:10;0.80;99.90
12015;DHT22;6066;48.138;16.402;2024-01-15T06:31:36;0.80;99.90
12015;DHT22;6066;48.138;16.402;2024-01-15T06:34:03;0.70;99.90
12015;DHT22;6066;48.138;16.402;2024-01-15T06:36:30;0.70;99.90
12015;DHT22;6066;48.138;16.402;2024-01-15T06:38:57;0.70;99.90
12015;DHT22;6066;48.138;16.402;2024-01-15T06:41:25;0.70;99.90
12015;DHT22;6066;48.138;16.402;2024-01-15T06:43:52;0.70;99.90
12015;DHT22;6066;48.138;16.402;2024-01-15T06:46:22;0.70;99.90
12015;DHT22;6066;48.138;16.402;2024-01-15T06:48:49;0.70;99.90
12015;DHT22;6066;48.138;16.402;2024-01-15T06:51:16;0.70;99.90
12015;DHT22;6066;48.138;16.402;2024-01-15T06:53:42;0.60;99.90
12015;DHT22;6066;48.138;16.402;2024-01-15T06:56:09;0.60;99.90
12015;DHT22;6066;48.138;16.402;2024-01-15T06:58:37;0.50;99.90
12015;DHT22;6066;48.138;16.402;2024-01-15T07:01:04;0.50;99.90
12015;DHT22;6066;48.138;16.402;2024-01-15T07:03:31;0.50;99.90
12015;DHT22;6066;48.138;16.402;2024-01-15T07:05:58;0.50;99.90
12015;DHT22;6066;48.138;16.402;2024-01-15T07:08:25;0.50;99.90
12015;DHT22;6066;48.138;16.402;2024-01-15T07:10:51;0.50;99.90
12015;DHT22;6066;48.138;16.402;2024-01-15T07:13:18;0.50;99.90
12015;DHT22;6066;48.138;16.402;2024-01-15T07:15:46;0.50;99.90
12015;DHT22;6066;48.138;16.402;2024-01-15T07:18:13;0.50;99.90
12015;DHT22;6066;48.138;16.402;2024-01-15T07:20:40;0.50;99.90
12015;DHT22;6066;48.138;16.402;2024-01-15T07:23:07;0.40;99.90
12015;DHT22;6066;48.138;16.402;2024-01-15T07:25:33;0.50;99.90
12015;DHT22;6066;48.138;16.402;2024-01-15T07:28:00;0.50;99.90
12015;DHT22;6066;48.138;16.402;2024-01-15T07:30:27;0.40;99.90
12015;DHT22;6066;48.138;16.402;2024-01-15T07:32:55;0.60;99.90
12015;DHT22;6066;48.138;16.402;2024-01-15T07:35:22;0.60;99.90
12015;DHT22;6066;48.138;16.402;2024-01-15T07:37:49;0.70;99.90
12015;DHT22;6066;48.138;16.402;2024-01-15T07:40:16;0.80;99.90
12015;DHT22;6066;48.138;16.402;2024-01-15T07:42:42;0.70;99.90
12015;DHT22;6066;48.138;16.402;2024-01-15T07:45:10;0.80;99.90
12015;DHT22;6066;48.138;16.402;2024-01-15T07:47:37;0.90;99.90
12015;DHT22;6066;48.138;16.402;2024-01-15T07:50:05;1.00;99.90
12015;DHT22;6066;48.138;16.402;2024-01-15T07:52:32;1.00;99.90
12015;DHT22;6066;48.138;16.402;2024-01-15T07:54:58;1.00;99.90
12015;DHT22;6066;48.138;16.402;2024-01-15T07:57:26;1.00;99.90
12015;DHT22;6066;48.138;16.402;2024-01-15T07:59:53;1.00;99.90
12015;DHT22;6066;48.138;16.402;2024-01-15T08:02:19;1.00;99.90
12015;DHT22;6066;48.138;16.402;2024-01-15T08:04:47;1.10;99.90
12015;DHT22;6066;48.138;16.402;2024-01-15T08:07:15;1.20;99.90
12015;DHT22;6066;48.138;16.402;2024-01-15T08:09:43;1.20;99.90
12015;DHT22;6066;48.138;16.402;2024-01-15T08:12:09;1.30;99.90
12015;DHT22;6066;48.138;16.402;2024-01-15T08:14:38;1.40;99.90
12015;DHT22;6066;48.138;16.402;2024-01-15T08:17:04;1.50;99.90
12015;DHT22;6066;48.138;16.402;2024-01-15T08:19:31;1.60;99.90
12015;DHT22;6066;48.138;16.402;2024-01-15T08:21:58;1.60;99.90
12015;DHT22;6066;48.138;16.402;2024-01-15T08:24:26;1.50;99.90
12015;DHT22;6066;48.138;16.402;2024-01-15T08:26:53;1.50;99.90
12015;DHT22;6066;48.138;16.402;2024-01-15T08:29:21;1.50;99.90
12015;DHT22;6066;48.138;16.402;2024-01-15T08:31:50;1.60;99.90
12015;DHT22;6066;48.138;16.402;2024-01-15T08:34:16;1.70;99.90
12015;DHT22;6066;48.138;16.402;2024-01-15T08:36:43;1.70;99.90
12015;DHT22;6066;48.138;16.402;2024-01-15T08:39:10;1.80;99.90
12015;DHT22;6066;48.138;16.402;2024-01-15T08:41:38;1.90;99.90
12015;DHT22;6066;48.138;16.402;2024-01-15T08:44:05;2.00;99.90
12015;DHT22;6066;48.138;16.402;2024-01-15T08:46:32;2.20;99.90
12015;DHT22;6066;48.138;16.402;2024-01-15T08:48:58;2.20;99.90
12015;DHT22;6066;48.138;16.402;2024-01-15T08:51:25;2.30;99.90
12015;DHT22;6066;48.138;16.402;2024-01-15T08:53:52;2.40;99.90
12015;DHT22;6066;48.138;16.402;2024-01-15T08:56:19;2.50;99.90
12015;DHT22;6066;48.138;16.402;2024-01-15T08:58:50;2.50;99.90
12015;DHT22;6066;48.138;16.402;2024-01-15T09:01:17;2.50;99.90
12015;DHT22;6066;48.138;16.402;2024-01-15T09:03:44;2.50;99.90
12015;DHT22;6066;48.138;16.402;2024-01-15T09:06:11;2.50;99.90
12015;DHT22;6066;48.138;16.402;2024-01-15T09:08:38;2.40;99.90
12015;DHT22;6066;48.138;16.402;2024-01-15T09:11:05;2.40;99.90
12015;DHT22;6066;48.138;16.402;2024-01-15T09:13:32;2.40;99.90
12015;DHT22;6066;48.138;16.402;2024-01-15T09:16:00;2.40;99.90
12015;DHT22;6066;48.138;16.402;2024-01-15T09:18:27;2.30;99.90
12015;DHT22;6066;48.138;16.402;2024-01-15T09:20:55;2.30;99.90
12015;DHT22;6066;48.138;16.402;2024-01-15T09:23:21;2.40;99.90
12015;DHT22;6066;48.138;16.402;2024-01-15T09:25:48;2.40;99.90
12015;DHT22;6066;48.138;16.402;2024-01-15T09:28:15;2.30;99.90
12015;DHT22;6066;48.138;16.402;2024-01-15T09:30:42;2.30;99.90
12015;DHT22;6066;48.138;16.402;2024-01-15T09:33:12;2.20;99.90
12015;DHT22;6066;48.138;16.402;2024-01-15T09:35:40;2.20;99.90
12015;DHT22;6066;48.138;16.402;2024-01-15T09:38:07;2.10;99.90
12015;DHT22;6066;48.138;16.402;2024-01-15T09:40:34;2.10;99.90
12015;DHT22;6066;48.138;16.402;2024-01-15T09:43:04;2.10;99.90
12015;DHT22;6066;48.138;16.402;2024-01-15T09:45:31;2.00;99.90
12015;DHT22;6066;48.138;16.402;2024-01-15T09:47:57;2.10;99.90
12015;DHT22;6066;48.138;16.402;2024-01-15T09:50:26;2.20;99.90
12015;DHT22;6066;48.138;16.402;2024-01-15T09:52:53;2.20;99.90
12015;DHT22;6066;48.138;16.402;2024-01-15T09:55:22;2.20;99.90
12015;DHT22;6066;48.138;16.402;2024-01-15T09:57:49;2.30;99.90
12015;DHT22;6066;48.138;16.402;2024-01-15T10:00:17;2.60;99.90
12015;DHT22;6066;48.138;16.402;2024-01-15T10:02:44;2.60;99.90
12015;DHT22;6066;48.138;16.402;2024-01-15T10:05:11;2.70;99.90
12015;DHT22;6066;48.138;16.402;2024-01-15T10:07:39;2.70;99.90
12015;DHT22;6066;48.138;16.402;2024-01-15T10:10:06;2.70;99.90
12015;DHT22;6066;48.138;16.402;2024-01-15T10:12:34;2.80;99.90
12015;DHT22;6066;48.138;16.402;2024-01-15T10:15:01;2.90;99.90
12015;DHT22;6066;48.138;16.402;2024-01-15T10:17:28;3.00;99.90
12015;DHT22;6066;48.138;16.402;2024-01-15T10:19:56;3.10;99.90
12015;DHT22;6066;48.138;16.402;2024-01-15T10:22:23;3.30;99.90
12015;DHT22;6066;48.138;16.402;2024-01-15T10:24:51;3.30;99.90
12015;DHT22;6066;48.138;16.402;2024-01-15T10:27:18;3.30;99.90
12015;DHT22;6066;48.138;16.402;2024-01-15T10:29:44;3.40;99.90
12015;DHT22;6066;48.138;16.402;2024-01-15T10:32:11;3.50;99.90
12015;DHT22;6066;48.138;16.402;2024-01-15T10:34:38;3.50;99.90
12015;DHT22;6066;48.138;16.402;2024-01-15T10:37:07;3.50;99.90
12015;DHT22;6066;48.138;16.402;2024-01-15T10:39:33;3.40;99.90
12015;DHT22;6066;48.138;16.402;2024-01-15T10:42:02;3.40;99.90
12015;DHT22;6066;48.138;16.402;2024-01-15T10:44:29;3.30;99.90
12015;DHT22;6066;48.138;16.402;2024-01-15T10:46:56;3.30;99.90
12015;DHT22;6066;48.138;16.402;2024-01-15T10:49:23;3.30;99.90
12015;DHT22;6066;48.138;16.402;2024-01-15T10:51:52;3.30;99.90
12015;DHT22;6066;48.138;16.402;2024-01-15T10:54:19;3.30;99.90
12015;DHT22;6066;48.138;16.402;2024-01-15T10:56:46;3.20;99.90
12015;DHT22;6066;48.138;16.402;2024-01-15T10:59:14;3.30;99.90
12015;DHT22;6066;48.138;16.402;2024-01-15T11:01:42;3.30;99.90
12015;DHT22;6066;48.138;16.402;2024-01-15T11:04:09;3.30;99.90
12015;DHT22;6066;48.138;16.402;2024-01-15T11:06:43;3.30;99.90
12015;DHT22;6066;48.138;16.402;2024-01-15T11:09:10;3.40;99.90
12015;DHT22;6066;48.138;16.402;2024-01-15T11:11:40;3.50;99.90
12015;DHT22;6066;48.138;16.402;2024-01-15T11:14:07;3.50;99.90
12015;DHT22;6066;48.138;16.402;2024-01-15T11:19:20;3.40;99.90
12015;DHT22;6066;48.138;16.402;2024-01-15T11:21:47;3.30;99.90
12015;DHT22;6066;48.138;16.402;2024-01-15T11:24:32;3.40;99.90
12015;DHT22;6066;48.138;16.402;2024-01-15T11:26:59;3.40;99.90
12015;DHT22;6066;48.138;16.402;2024-01-15T11:29:29;3.50;99.90
12015;DHT22;6066;48.138;16.402;2024-01-15T11:31:57;3.40;99.90
12015;DHT22;6066;48.138;16.402;2024-01-15T11:37:08;3.50;99.90
12015;DHT22;6066;48.138;16.402;2024-01-15T11:39:41;3.40;99.90
12015;DHT22;6066;48.138;16.402;2024-01-15T11:42:09;3.40;99.90
12015;DHT22;6066;48.138;16.402;2024-01-15T11:44:36;3.50;99.90
12015;DHT22;6066;48.138;16.402;2024-01-15T11:47:03;3.60;99.90
12015;DHT22;6066;48.138;16.402;2024-01-15T11:49:34;3.70;99.90
12015;DHT22;6066;48.138;16.402;2024-01-15T11:52:09;3.80;99.90
12015;DHT22;6066;48.138;16.402;2024-01-15T11:54:37;3.80;99.90
12015;DHT22;6066;48.138;16.402;2024-01-15T11:57:06;3.80;99.90
12015;DHT22;6066;48.138;16.402;2024-01-15T11:59:36;3.80;99.90
12015;DHT22;6066;48.138;16.402;2024-01-15T12:02:03;3.70;99.90
12015;DHT22;6066;48.138;16.402;2024-01-15T12:04:29;3.70;99.90
12015;DHT22;6066;48.138;16.402;2024-01-15T12:06:56;3.70;99.90
12015;DHT22;6066;48.138;16.402;2024-01-15T12:09:24;3.70;99.90
12015;DHT22;6066;48.138;16.402;2024-01-15T12:11:54;3.70;99.90
12015;DHT22;6066;48.138;16.402;2024-01-15T12:14:24;3.90;99.90
12015;DHT22;6066;48.138;16.402;2024-01-15T12:16:52;3.80;99.90
12015;DHT22;6066;48.138;16.402;2024-01-15T12:19:19;3.80;99.90
12015;DHT22;6066;48.138;16.402;2024-01-15T12:21:46;3.80;99.90
12015;DHT22;6066;48.138;16.402;2024-01-15T12:24:13;3.90;99.90
12015;DHT22;6066;48.138;16.402;2024-01-15T12:26:41;3.90;99.90
12015;DHT22;6066;48.138;16.402;2024-01-15T12:29:08;3.90;99.90
12015;DHT22;6066;48.138;16.402;2024-01-15T12:31:35;4.00;99.90
12015;DHT22;6066;48.138;16.402;2024-01-15T12:34:02;4.10;99.90
12015;DHT22;6066;48.138;16.402;2024-01-15T12:36:30;4.30;99.90
12015;DHT22;6066;48.138;16.402;2024-01-15T12:38:58;4.50;99.90
12015;DHT22;6066;48.138;16.402;2024-01-15T12:41:25;4.50;99.90
12015;DHT22;6066;48.138;16.402;2024-01-15T12:43:53;4.50;99.90
12015;DHT22;6066;48.138;16.402;2024-01-15T12:46:20;4.50;99.90
12015;DHT22;6066;48.138;16.402;2024-01-15T12:48:47;4.40;99.90
12015;DHT22;6066;48.138;16.402;2024-01-15T12:51:14;4.40;99.90
12015;DHT22;6066;48.138;16.402;2024-01-15T12:53:41;4.50;99.90
12015;DHT22;6066;48.138;16.402;2024-01-15T12:56:08;4.50;99.90
12015;DHT22;6066;48.138;16.402;2024-01-15T12:58:35;4.60;99.90
12015;DHT22;6066;48.138;16.402;2024-01-15T13:01:03;4.70;99.90
12015;DHT22;6066;48.138;16.402;2024-01-15T13:03:30;4.90;99.90
12015;DHT22;6066;48.138;16.402;2024-01-15T13:05:57;5.00;99.90
12015;DHT22;6066;48.138;16.402;2024-01-15T13:08:23;5.00;99.90
12015;DHT22;6066;48.138;16.402;2024-01-15T13:10:52;5.00;99.90
12015;DHT22;6066;48.138;16.402;2024-01-15T13:13:21;5.00;99.90
12015;DHT22;6066;48.138;16.402;2024-01-15T13:15:48;5.00;99.90
12015;DHT22;6066;48.138;16.402;2024-01-15T13:18:17;4.90;99.90
12015;DHT22;6066;48.138;16.402;2024-01-15T13:20:44;4.90;99.90
12015;DHT22;6066;48.138;16.402;2024-01-15T13:23:11;4.80;99.90
12015;DHT22;6066;48.138;16.402;2024-01-15T13:25:38;4.90;99.90
12015;DHT22;6066;48.138;16.402;2024-01-15T13:28:05;5.00;99.90
12015;DHT22;6066;48.138;16.402;2024-01-15T13:30:31;5.00;99.90
12015;DHT22;6066;48.138;16.402;2024-01-15T13:32:58;5.00;99.90
12015;DHT22;6066;48.138;16.402;2024-01-15T13:35:30;5.00;99.90
12015;DHT22;6066;48.138;16.402;2024-01-15T13:37:57;5.10;99.90
12015;DHT22;6066;48.138;16.402;2024-01-15T13:40:24;5.10;99.90
12015;DHT22;6066;48.138;16.402;2024-01-15T13:42:51;5.00;99.90
12015;DHT22;6066;48.138;16.402;2024-01-15T13:45:19;4.90;99.90
12015;DHT22;6066;48.138;16.402;2024-01-15T13:47:47;4.70;99.90
12015;DHT22;6066;48.138;16.402;2024-01-15T13:50:14;4.60;99.90
12015;DHT22;6066;48.138;16.402;2024-01-15T13:52:42;4.50;99.90
12015;DHT22;6066;48.138;16.402;2024-01-15T13:55:09;4.50;99.90
12015;DHT22;6066;48.138;16.402;2024-01-15T13:57:36;4.40;99.90
12015;DHT22;6066;48.138;16.402;2024-01-15T14:00:03;4.40;99.90
12015;DHT22;6066;48.138;16.402;2024-01-15T14:02:34;4.40;99.90
12015;DHT22;6066;48.138;16.402;2024-01-15T14:05:01;4.50;99.90
12015;DHT22;6066;48.138;16.402;2024-01-15T14:07:28;4.40;99.90
12015;DHT22;6066;48.138;16.402;2024-01-15T14:09:56;4.40;99.90
12015;DHT22;6066;48.138;16.402;2024-01-15T14:12:23;4.30;99.90
12015;DHT22;6066;48.138;16.402;2024-01-15T14:14:51;4.30;99.90
12015;DHT22;6066;48.138;16.402;2024-01-15T14:17:18;4.20;99.90
12015;DHT22;6066;48.138;16.402;2024-01-15T14:19:45;4.20;99.90
12015;DHT22;6066;48.138;16.402;2024-01-15T14:22:12;4.10;99.90
12015;DHT22;6066;48.138;16.402;2024-01-15T14:24:39;4.00;99.90
12015;DHT22;6066;48.138;16.402;2024-01-15T14:27:07;3.80;99.90
12015;DHT22;6066;48.138;16.402;2024-01-15T14:29:34;3.70;99.90
12015;DHT22;6066;48.138;16.402;2024-01-15T14:32:01;3.60;99.90
12015;DHT22;6066;48.138;16.402;2024-01-15T14:34:28;3.50;99.90
12015;DHT22;6066;48.138;16.402;2024-01-15T14:36:55;3.40;99.90
12015;DHT22;6066;48.138;16.402;2024-01-15T14:39:22;3.30;99.90
12015;DHT22;6066;48.138;16.402;2024-01-15T14:41:49;3.10;99.90
12015;DHT22;6066;48.138;16.402;2024-01-15T14:44:18;3.10;99.90
12015;DHT22;6066;48.138;16.402;2024-01-15T14:46:44;3.00;99.90
12015;DHT22;6066;48.138;16.402;2024-01-15T14:49:13;2.90;99.90
12015;DHT22;6066;48.138;16.402;2024-01-15T14:51:39;2.80;99.90
12015;DHT22;6066;48.138;16.402;2024-01-15T14:54:07;2.70;99.90
12015;DHT22;6066;48.138;16.402;2024-01-15T14:56:34;2.60;99.90
12015;DHT22;6066;48.138;16.402;2024-01-15T14:59:01;2.50;99.90
12015;DHT22;6066;48.138;16.402;2024-01-15T15:01:29;2.50;99.90
12015;DHT22;6066;48.138;16.402;2024-01-15T15:03:56;2.50;99.90
12015;DHT22;6066;48.138;16.402;2024-01-15T15:06:23;2.30;99.90
12015;DHT22;6066;48.138;16.402;2024-01-15T15:08:53;2.30;99.90
12015;DHT22;6066;48.138;16.402;2024-01-15T15:11:20;2.20;99.90
12015;DHT22;6066;48.138;16.402;2024-01-15T15:13:48;2.10;99.90
12015;DHT22;6066;48.138;16.402;2024-01-15T15:16:15;2.10;99.90
12015;DHT22;6066;48.138;16.402;2024-01-15T15:18:44;2.10;99.90
12015;DHT22;6066;48.138;16.402;2024-01-15T15:21:11;2.20;99.90
12015;DHT22;6066;48.138;16.402;2024-01-15T15:23:38;2.10;99.90
12015;DHT22;6066;48.138;16.402;2024-01-15T15:26:05;2.10;99.90
12015;DHT22;6066;48.138;16.402;2024-01-15T15:28:32;2.10;99.90
12015;DHT22;6066;48.138;16.402;2024-01-15T15:31:01;2.10;99.90
12015;DHT22;6066;48.138;16.402;2024-01-15T15:33:28;2.10;99.90
12015;DHT22;6066;48.138;16.402;2024-01-15T15:35:56;2.00;99.90
12015;DHT22;6066;48.138;16.402;2024-01-15T15:38:24;2.00;99.90
12015;DHT22;6066;48.138;16.402;2024-01-15T15:40:52;2.00;99.90
12015;DHT22;6066;48.138;16.402;2024-01-15T15:43:19;1.90;99.90
12015;DHT22;6066;48.138;16.402;2024-01-15T15:45:46;1.90;99.90
12015;DHT22;6066;48.138;16.402;2024-01-15T15:48:12;2.00;99.90